sensor_id;sensor_type;location;lat;lon;timestamp;temperature;humidity
32348;DHT22;18821;44.800;10.326;2023-07-24T00:04:00;25.00;99.90
32348;DHT22;18821;44.800;10.326;2023-07-24T00:06:26;25.10;99.90
32348;DHT22;18821;44.800;10.326;2023-07-24T00:08:52;25.10;99.90
32348;DHT22;18821;44.800;10.326;2023-07-24T00:11:17;24.60;99.90
32348;DHT22;18821;44.800;10.326;2023-07-24T00:13:45;24.60;99.90
32348;DHT22;18821;44.800;10.326;2023-07-24T00:16:11;24.60;99.90
32348;DHT22;18821;44.800;10.326;2023-07-24T00:18:37;24.50;99.90
32348;DHT22;18821;44.800;10.326;2023-07-24T00:21:02;24.50;99.90
32348;DHT22;18821;44.800;10.326;2023-07-24T00:23:28;24.50;99.90
32348;DHT22;18821;44.800;10.326;2023-07-24T00:25:54;24.80;99.90
32348;DHT22;18821;44.800;10.326;2023-07-24T00:28:20;23.50;99.90
32348;DHT22;18821;44.800;10.326;2023-07-24T00:30:46;23.50;99.90
32348;DHT22;18821;44.800;10.326;2023-07-24T00:33:12;23.50;99.90
32348;DHT22;18821;44.800;10.326;2023-07-24T00:35:38;24.70;99.90
32348;DHT22;18821;44.800;10.326;2023-07-24T00:38:04;24.10;99.90
32348;DHT22;18821;44.800;10.326;2023-07-24T00:40:30;23.90;99.90
32348;DHT22;18821;44.800;10.326;2023-07-24T00:42:56;23.70;99.90
32348;DHT22;18821;44.800;10.326;2023-07-24T00:45:22;24.50;99.90
32348;DHT22;18821;44.800;10.326;2023-07-24T00:47:49;23.80;99.90
32348;DHT22;18821;44.800;10.326;2023-07-24T00:50:15;24.00;99.90
32348;DHT22;18821;44.800;10.326;2023-07-24T00:52:41;23.70;99.90
32348;DHT22;18821;44.800;10.326;2023-07-24T00:55:09;24.40;99.90
32348;DHT22;18821;44.800;10.326;2023-07-24T00:57:35;23.80;99.90
32348;DHT22;18821;44.800;10.326;2023-07-24T01:00:01;24.40;99.90
32348;DHT22;18821;44.800;10.326;2023-07-24T01:02:27;24.20;99.90
32348;DHT22;18821;44.800;10.326;2023-07-24T01:04:53;24.40;99.90
32348;DHT22;18821;44.800;10.326;2023-07-24T01:07:20;24.30;99.90
32348;DHT22;18821;44.800;10.326;2023-07-24T01:09:46;23.60;99.90
32348;DHT22;18821;44.800;10.326;2023-07-24T01:12:32;23.80;99.90
32348;DHT22;18821;44.800;10.326;2023-07-24T01:15:18;23.80;99.90
32348;DHT22;18821;44.800;10.326;2023-07-24T01:17:50;23.40;99.90
32348;DHT22;18821;44.800;10.326;2023-07-24T01:20:21;22.70;99.90
32348;DHT22;18821;44.800;10.326;2023-07-24T01:23:14;23.60;99.90
32348;DHT22;18821;44.800;10.326;2023-07-24T01:25:56;23.90;99.90
32348;DHT22;18821;44.800;10.326;2023-07-24T01:28:23;22.80;99.90
32348;DHT22;18821;44.800;10.326;2023-07-24T01:30:49;23.90;99.90
32348;DHT22;18821;44.800;10.326;2023-07-24T01:33:15;22.90;99.90
32348;DHT22;18821;44.800;10.326;2023-07-24T01:35:42;23.70;99.90
32348;DHT22;18821;44.800;10.326;2023-07-24T01:38:13;23.80;99.90
32348;DHT22;18821;44.800;10.326;2023-07-24T01:40:40;23.90;99.90
32348;DHT22;18821;44.800;10.326;2023-07-24T01:43:07;23.40;99.90
32348;DHT22;18821;44.800;10.326;2023-07-24T01:45:32;22.90;99.90
32348;DHT22;18821;44.800;10.326;2023-07-24T01:47:59;23.80;99.90
32348;DHT22;18821;44.800;10.326;2023-07-24T01:50:27;23.60;99.90
32348;DHT22;18821;44.800;10.326;2023-07-24T01:52:53;23.00;99.90
32348;DHT22;18821;44.800;10.326;2023-07-24T01:55:19;23.90;99.90
32348;DHT22;18821;44.800;10.326;2023-07-24T01:57:45;23.20;99.90
32348;DHT22;18821;44.800;10.326;2023-07-24T02:00:12;24.10;99.90
32348;DHT22;18821;44.800;10.326;2023-07-24T02:02:38;22.80;99.90
32348;DHT22;18821;44.800;10.326;2023-07-24T02:07:30;23.00;99.90
32348;DHT22;18821;44.800;10.326;2023-07-24T02:09:56;24.10;99.90
32348;DHT22;18821;44.800;10.326;2023-07-24T02:12:22;22.90;99.90
32348;DHT22;18821;44.800;10.326;2023-07-24T02:14:49;23.90;99.90
32348;DHT22;18821;44.800;10.326;2023-07-24T02:17:17;23.00;99.90
32348;DHT22;18821;44.800;10.326;2023-07-24T02:19:44;24.00;99.90
32348;DHT22;18821;44.800;10.326;2023-07-24T02:27:04;23.10;99.90
32348;DHT22;18821;44.800;10.326;2023-07-24T02:29:31;23.20;99.90
32348;DHT22;18821;44.800;10.326;2023-07-24T02:31:58;23.40;99.90
32348;DHT22;18821;44.800;10.326;2023-07-24T02:34:24;23.70;99.90
32348;DHT22;18821;44.800;10.326;2023-07-24T02:36:52;23.50;99.90
32348;DHT22;18821;44.800;10.326;2023-07-24T02:39:19;23.60;99.90
32348;DHT22;18821;44.800;10.326;2023-07-24T02:41:45;23.10;99.90
32348;DHT22;18821;44.800;10.326;2023-07-24T02:44:11;22.50;99.90
32348;DHT22;18821;44.800;10.326;2023-07-24T02:46:37;23.50;99.90
32348;DHT22;18821;44.800;10.326;2023-07-24T02:51:30;22.30;99.90
32348;DHT22;18821;44.800;10.326;2023-07-24T02:56:23;23.30;99.90
32348;DHT22;18821;44.800;10.326;2023-07-24T02:58:49;23.20;99.90
32348;DHT22;18821;44.800;10.326;2023-07-24T03:03:41;23.10;99.90
32348;DHT22;18821;44.800;10.326;2023-07-24T03:06:07;23.60;99.90
32348;DHT22;18821;44.800;10.326;2023-07-24T03:08:33;23.30;99.90
32348;DHT22;18821;44.800;10.326;2023-07-24T03:11:00;23.20;99.90
32348;DHT22;18821;44.800;10.326;2023-07-24T03:13:28;23.40;99.90
32348;DHT22;18821;44.800;10.326;2023-07-24T03:15:55;23.30;99.90
32348;DHT22;18821;44.800;10.326;2023-07-24T03:18:22;23.60;99.90
32348;DHT22;18821;44.800;10.326;2023-07-24T03:20:50;22.90;99.90
32348;DHT22;18821;44.800;10.326;2023-07-24T03:23:16;23.30;99.90
32348;DHT22;18821;44.800;10.326;2023-07-24T03:25:42;23.30;99.90
32348;DHT22;18821;44.800;10.326;2023-07-24T03:28:08;22.50;99.90
32348;DHT22;18821;44.800;10.326;2023-07-24T03:30:34;22.10;99.90
32348;DHT22;18821;44.800;10.326;2023-07-24T03:33:00;23.60;99.90
32348;DHT22;18821;44.800;10.326;2023-07-24T03:35:27;22.90;99.90
32348;DHT22;18821;44.800;10.326;2023-07-24T03:45:12;22.30;99.90
32348;DHT22;18821;44.800;10.326;2023-07-24T03:47:38;22.70;99.90
32348;DHT22;18821;44.800;10.326;2023-07-24T03:50:04;22.90;99.90
32348;DHT22;18821;44.800;10.326;2023-07-24T03:52:30;22.40;99.90
32348;DHT22;18821;44.800;10.326;2023-07-24T03:54:56;23.70;99.90
32348;DHT22;18821;44.800;10.326;2023-07-24T03:57:22;22.30;99.90
32348;DHT22;18821;44.800;10.326;2023-07-24T03:59:47;23.40;99.90
32348;DHT22;18821;44.800;10.326;2023-07-24T04:02:13;23.50;99.90
32348;DHT22;18821;44.800;10.326;2023-07-24T04:07:06;22.70;99.90
32348;DHT22;18821;44.800;10.326;2023-07-24T04:09:32;22.80;99.90
32348;DHT22;18821;44.800;10.326;2023-07-24T04:11:58;22.40;99.90
32348;DHT22;18821;44.800;10.326;2023-07-24T04:14:24;21.70;99.90
32348;DHT22;18821;44.800;10.326;2023-07-24T04:16:49;23.20;99.90
32348;DHT22;18821;44.800;10.326;2023-07-24T04:21:42;22.40;99.90
32348;DHT22;18821;44.800;10.326;2023-07-24T04:26:34;21.90;99.90
32348;DHT22;18821;44.800;10.326;2023-07-24T04:31:26;22.80;99.90
32348;DHT22;18821;44.800;10.326;2023-07-24T04:33:52;22.60;99.90
32348;DHT22;18821;44.800;10.326;2023-07-24T04:38:44;22.70;99.90
32348;DHT22;18821;44.800;10.326;2023-07-24T04:41:12;22.40;99.90
32348;DHT22;18821;44.800;10.326;2023-07-24T04:43:38;23.60;99.90
32348;DHT22;18821;44.800;10.326;2023-07-24T04:48:31;23.50;99.90
32348;DHT22;18821;44.800;10.326;2023-07-24T04:50:57;23.10;99.90
32348;DHT22;18821;44.800;10.326;2023-07-24T04:53:23;22.40;99.90
32348;DHT22;18821;44.800;10.326;2023-07-24T04:55:49;23.10;99.90
32348;DHT22;18821;44.800;10.326;2023-07-24T04:58:16;22.40;99.90
32348;DHT22;18821;44.800;10.326;2023-07-24T05:00:42;22.80;99.90
32348;DHT22;18821;44.800;10.326;2023-07-24T05:03:08;22.90;99.90
32348;DHT22;18821;44.800;10.326;2023-07-24T05:05:39;22.50;99.90
32348;DHT22;18821;44.800;10.326;2023-07-24T05:08:05;21.70;99.90
32348;DHT22;18821;44.800;10.326;2023-07-24T05:10:38;22.20;99.90
32348;DHT22;18821;44.800;10.326;2023-07-24T05:13:04;21.70;99.90
32348;DHT22;18821;44.800;10.326;2023-07-24T05:15:29;21.40;99.90
32348;DHT22;18821;44.800;10.326;2023-07-24T05:20:22;22.10;99.90
32348;DHT22;18821;44.800;10.326;2023-07-24T05:22:48;22.70;99.90
32348;DHT22;18821;44.800;10.326;2023-07-24T05:25:14;22.00;99.90
32348;DHT22;18821;44.800;10.326;2023-07-24T05:27:40;22.40;99.90
32348;DHT22;18821;44.800;10.326;2023-07-24T05:30:06;23.00;99.90
32348;DHT22;18821;44.800;10.326;2023-07-24T05:32:32;23.10;99.90
32348;DHT22;18821;44.800;10.326;2023-07-24T05:34:58;22.40;99.90
32348;DHT22;18821;44.800;10.326;2023-07-24T05:37:24;23.30;99.90
32348;DHT22;18821;44.800;10.326;2023-07-24T05:39:50;22.00;99.90
32348;DHT22;18821;44.800;10.326;2023-07-24T05:42:16;21.40;99.90
32348;DHT22;18821;44.800;10.326;2023-07-24T05:47:09;21.70;99.90
32348;DHT22;18821;44.800;10.326;2023-07-24T05:52:02;23.00;99.90
32348;DHT22;18821;44.800;10.326;2023-07-24T05:56:54;21.70;99.90
32348;DHT22;18821;44.800;10.326;2023-07-24T05:59:20;22.90;99.90
32348;DHT22;18821;44.800;10.326;2023-07-24T06:01:46;22.40;99.90
32348;DHT22;18821;44.800;10.326;2023-07-24T06:04:12;23.10;99.90
32348;DHT22;18821;44.800;10.326;2023-07-24T06:06:38;23.30;99.90
32348;DHT22;18821;44.800;10.326;2023-07-24T06:09:04;23.20;99.90
32348;DHT22;18821;44.800;10.326;2023-07-24T06:11:29;23.40;99.90
32348;DHT22;18821;44.800;10.326;2023-07-24T06:13:55;23.50;99.90
32348;DHT22;18821;44.800;10.326;2023-07-24T06:16:21;23.50;99.90
32348;DHT22;18821;44.800;10.326;2023-07-24T06:18:47;23.50;99.90
32348;DHT22;18821;44.800;10.326;2023-07-24T06:21:13;23.70;99.90
32348;DHT22;18821;44.800;10.326;2023-07-24T06:23:39;23.20;99.90
32348;DHT22;18821;44.800;10.326;2023-07-24T06:26:06;24.00;99.90
32348;DHT22;18821;44.800;10.326;2023-07-24T06:28:32;23.30;99.90
32348;DHT22;18821;44.800;10.326;2023-07-24T06:30:59;23.30;99.90
32348;DHT22;18821;44.800;10.326;2023-07-24T06:33:25;23.30;99.90
32348;DHT22;18821;44.800;10.326;2023-07-24T06:35:51;23.30;99.90
32348;DHT22;18821;44.800;10.326;2023-07-24T06:38:17;23.30;99.90
32348;DHT22;18821;44.800;10.326;2023-07-24T06:40:43;23.30;99.90
32348;DHT22;18821;44.800;10.326;2023-07-24T06:43:09;23.30;99.90
32348;DHT22;18821;44.800;10.326;2023-07-24T06:45:35;23.30;99.90
32348;DHT22;18821;44.800;10.326;2023-07-24T06:48:00;23.40;99.90
32348;DHT22;18821;44.800;10.326;2023-07-24T06:50:26;23.50;99.90
32348;DHT22;18821;44.800;10.326;2023-07-24T06:52:52;23.50;99.90
32348;DHT22;18821;44.800;10.326;2023-07-24T06:55:19;23.70;99.90
32348;DHT22;18821;44.800;10.326;2023-07-24T06:57:45;23.80;99.90
32348;DHT22;18821;44.800;10.326;2023-07-24T07:00:12;24.00;99.90
32348;DHT22;18821;44.800;10.326;2023-07-24T07:02:38;24.10;99.90
32348;DHT22;18821;44.800;10.326;2023-07-24T07:05:05;24.10;99.90
32348;DHT22;18821;44.800;10.326;2023-07-24T07:07:31;24.30;99.90
32348;DHT22;18821;44.800;10.326;2023-07-24T07:09:57;24.50;99.90
32348;DHT22;18821;44.800;10.326;2023-07-24T07:12:23;24.60;99.90
32348;DHT22;18821;44.800;10.326;2023-07-24T07:14:49;24.60;99.90
32348;DHT22;18821;44.800;10.326;2023-07-24T07:17:15;24.80;99.90
32348;DHT22;18821;44.800;10.326;2023-07-24T07:19:40;24.60;99.90
32348;DHT22;18821;44.800;10.326;2023-07-24T07:22:06;24.60;99.90
32348;DHT22;18821;44.800;10.326;2023-07-24T07:24:32;24.70;99.90
32348;DHT22;18821;44.800;10.326;2023-07-24T07:26:58;24.90;99.90
32348;DHT22;18821;44.800;10.326;2023-07-24T07:29:24;24.90;99.90
32348;DHT22;18821;44.800;10.326;2023-07-24T07:31:50;24.70;99.90
32348;DHT22;18821;44.800;10.326;2023-07-24T07:34:16;24.60;99.90
32348;DHT22;18821;44.800;10.326;2023-07-24T07:36:42;24.80;99.90
32348;DHT22;18821;44.800;10.326;2023-07-24T07:39:08;25.10;99.90
32348;DHT22;18821;44.800;10.326;2023-07-24T07:41:35;25.10;99.90
32348;DHT22;18821;44.800;10.326;2023-07-24T07:44:01;25.20;99.90
32348;DHT22;18821;44.800;10.326;2023-07-24T07:46:27;25.30;99.90
32348;DHT22;18821;44.800;10.326;2023-07-24T07:48:52;25.60;99.90
32348;DHT22;18821;44.800;10.326;2023-07-24T07:51:18;26.10;99.90
32348;DHT22;18821;44.800;10.326;2023-07-24T07:53:44;26.50;99.90
32348;DHT22;18821;44.800;10.326;2023-07-24T07:56:10;26.90;99.90
32348;DHT22;18821;44.800;10.326;2023-07-24T07:58:37;27.30;99.90
32348;DHT22;18821;44.800;10.326;2023-07-24T08:01:06;27.20;99.90
32348;DHT22;18821;44.800;10.326;2023-07-24T08:03:33;27.30;99.90
32348;DHT22;18821;44.800;10.326;2023-07-24T08:06:00;27.40;99.90
32348;DHT22;18821;44.800;10.326;2023-07-24T08:08:26;27.30;99.90
32348;DHT22;18821;44.800;10.326;2023-07-24T08:10:52;26.90;99.90
32348;DHT22;18821;44.800;10.326;2023-07-24T08:13:18;26.50;99.90
32348;DHT22;18821;44.800;10.326;2023-07-24T08:15:44;26.40;99.90
32348;DHT22;18821;44.800;10.326;2023-07-24T08:18:10;26.30;99.90
32348;DHT22;18821;44.800;10.326;2023-07-24T08:20:37;26.60;99.90
32348;DHT22;18821;44.800;10.326;2023-07-24T08:23:03;26.90;99.90
32348;DHT22;18821;44.800;10.326;2023-07-24T08:25:29;27.20;99.90
32348;DHT22;18821;44.800;10.326;2023-07-24T08:27:55;27.10;99.90
32348;DHT22;18821;44.800;10.326;2023-07-24T08:30:21;27.10;99.90
32348;DHT22;18821;44.800;10.326;2023-07-24T08:32:47;27.10;99.90
32348;DHT22;18821;44.800;10.326;2023-07-24T08:35:16;26.90;99.90
32348;DHT22;18821;44.800;10.326;2023-07-24T08:37:45;27.10;99.90
32348;DHT22;18821;44.800;10.326;2023-07-24T08:40:11;27.40;99.90
32348;DHT22;18821;44.800;10.326;2023-07-24T08:42:44;27.60;99.90
32348;DHT22;18821;44.800;10.326;2023-07-24T08:45:12;27.80;99.90
32348;DHT22;18821;44.800;10.326;2023-07-24T08:47:42;27.30;99.90
32348;DHT22;18821;44.800;10.326;2023-07-24T08:50:10;27.00;99.90
32348;DHT22;18821;44.800;10.326;2023-07-24T08:52:41;26.80;99.90
32348;DHT22;18821;44.800;10.326;2023-07-24T08:55:08;26.60;99.90
32348;DHT22;18821;44.800;10.326;2023-07-24T08:57:35;26.30;99.90
32348;DHT22;18821;44.800;10.326;2023-07-24T09:00:02;26.20;99.90
32348;DHT22;18821;44.800;10.326;2023-07-24T09:02:34;26.70;99.90
32348;DHT22;18821;44.800;10.326;2023-07-24T09:05:01;26.40;99.90
32348;DHT22;18821;44.800;10.326;2023-07-24T09:07:28;25.90;99.90
32348;DHT22;18821;44.800;10.326;2023-07-24T09:09:55;26.00;99.90
32348;DHT22;18821;44.800;10.326;2023-07-24T09:12:22;26.30;99.90
32348;DHT22;18821;44.800;10.326;2023-07-24T09:14:48;26.10;99.90
32348;DHT22;18821;44.800;10.326;2023-07-24T09:17:14;25.20;99.90
32348;DHT22;18821;44.800;10.326;2023-07-24T09:19:43;25.90;99.90
32348;DHT22;18821;44.800;10.326;2023-07-24T09:22:12;25.90;99.90
32348;DHT22;18821;44.800;10.326;2023-07-24T09:24:53;26.10;99.90
32348;DHT22;18821;44.800;10.326;2023-07-24T09:27:19;26.20;99.90
32348;DHT22;18821;44.800;10.326;2023-07-24T09:29:46;25.10;99.90
32348;DHT22;18821;44.800;10.326;2023-07-24T09:32:22;25.70;99.90
32348;DHT22;18821;44.800;10.326;2023-07-24T09:34:49;25.70;99.90
32348;DHT22;18821;44.800;10.326;2023-07-24T09:37:35;26.00;99.90
32348;DHT22;18821;44.800;10.326;2023-07-24T09:40:04;25.90;99.90
32348;DHT22;18821;44.800;10.326;2023-07-24T09:42:32;26.10;99.90
32348;DHT22;18821;44.800;10.326;2023-07-24T09:44:59;26.10;99.90
32348;DHT22;18821;44.800;10.326;2023-07-24T09:47:25;26.00;99.90
32348;DHT22;18821;44.800;10.326;2023-07-24T09:49:52;25.80;99.90
32348;DHT22;18821;44.800;10.326;2023-07-24T09:52:19;26.30;99.90
32348;DHT22;18821;44.800;10.326;2023-07-24T09:55:09;25.70;99.90
32348;DHT22;18821;44.800;10.326;2023-07-24T09:57:36;26.30;99.90
32348;DHT22;18821;44.800;10.326;2023-07-24T10:00:03;27.80;99.90
32348;DHT22;18821;44.800;10.326;2023-07-24T10:02:32;28.20;99.90
32348;DHT22;18821;44.800;10.326;2023-07-24T10:04:59;27.90;99.90
32348;DHT22;18821;44.800;10.326;2023-07-24T10:07:25;28.20;99.90
32348;DHT22;18821;44.800;10.326;2023-07-24T10:09:52;28.20;99.90
32348;DHT22;18821;44.800;10.326;2023-07-24T10:12:19;28.60;99.90
32348;DHT22;18821;44.800;10.326;2023-07-24T10:14:46;28.70;99.90
32348;DHT22;18821;44.800;10.326;2023-07-24T10:17:13;28.50;99.90
32348;DHT22;18821;44.800;10.326;2023-07-24T10:19:42;28.40;99.90
32348;DHT22;18821;44.800;10.326;2023-07-24T10:22:16;28.30;99.90
32348;DHT22;18821;44.800;10.326;2023-07-24T10:24:43;28.00;99.90
32348;DHT22;18821;44.800;10.326;2023-07-24T10:27:09;28.10;99.90
32348;DHT22;18821;44.800;10.326;2023-07-24T10:29:35;28.10;99.90
32348;DHT22;18821;44.800;10.326;2023-07-24T10:32:02;27.80;99.90
32348;DHT22;18821;44.800;10.326;2023-07-24T10:34:38;28.10;99.90
32348;DHT22;18821;44.800;10.326;2023-07-24T10:37:08;28.50;99.90
32348;DHT22;18821;44.800;10.326;2023-07-24T10:39:40;28.70;99.90
32348;DHT22;18821;44.800;10.326;2023-07-24T10:42:08;29.90;99.90
32348;DHT22;18821;44.800;10.326;2023-07-24T10:44:34;29.70;99.90
32348;DHT22;18821;44.800;10.326;2023-07-24T10:47:00;29.40;99.90
32348;DHT22;18821;44.800;10.326;2023-07-24T10:51:59;29.80;99.90
32348;DHT22;18821;44.800;10.326;2023-07-24T10:54:25;29.70;99.90
32348;DHT22;18821;44.800;10.326;2023-07-24T10:56:58;29.70;99.90
32348;DHT22;18821;44.800;10.326;2023-07-24T10:59:39;30.20;99.90
32348;DHT22;18821;44.800;10.326;2023-07-24T11:02:07;29.80;99.90
32348;DHT22;18821;44.800;10.326;2023-07-24T11:04:33;29.50;99.90
32348;DHT22;18821;44.800;10.326;2023-07-24T11:07:00;29.70;99.90
32348;DHT22;18821;44.800;10.326;2023-07-24T11:09:39;30.20;99.90
32348;DHT22;18821;44.800;10.326;2023-07-24T11:12:16;29.90;99.90
32348;DHT22;18821;44.800;10.326;2023-07-24T11:14:49;29.70;99.90
32348;DHT22;18821;44.800;10.326;2023-07-24T11:17:15;29.70;99.90
32348;DHT22;18821;44.800;10.326;2023-07-24T11:19:42;30.20;99.90
32348;DHT22;18821;44.800;10.326;2023-07-24T11:22:08;30.50;99.90
32348;DHT22;18821;44.800;10.326;2023-07-24T11:24:45;30.00;99.90
32348;DHT22;18821;44.800;10.326;2023-07-24T11:27:16;30.10;99.90
32348;DHT22;18821;44.800;10.326;2023-07-24T11:29:47;31.20;99.90
32348;DHT22;18821;44.800;10.326;2023-07-24T11:32:19;30.60;99.90
32348;DHT22;18821;44.800;10.326;2023-07-24T11:34:49;31.10;99.90
32348;DHT22;18821;44.800;10.326;2023-07-24T11:37:16;30.00;99.90
32348;DHT22;18821;44.800;10.326;2023-07-24T11:42:10;30.80;99.90
32348;DHT22;18821;44.800;10.326;2023-07-24T11:44:36;31.70;99.90
32348;DHT22;18821;44.800;10.326;2023-07-24T11:47:06;31.00;99.90
32348;DHT22;18821;44.800;10.326;2023-07-24T11:49:32;30.70;99.90
32348;DHT22;18821;44.800;10.326;2023-07-24T11:52:04;30.40;99.90
32348;DHT22;18821;44.800;10.326;2023-07-24T11:54:30;30.80;99.90
32348;DHT22;18821;44.800;10.326;2023-07-24T11:59:24;30.20;99.90
32348;DHT22;18821;44.800;10.326;2023-07-24T12:01:50;30.50;99.90
32348;DHT22;18821;44.800;10.326;2023-07-24T12:04:17;30.50;99.90
32348;DHT22;18821;44.800;10.326;2023-07-24T12:06:43;30.20;99.90
32348;DHT22;18821;44.800;10.326;2023-07-24T12:09:10;30.40;99.90
32348;DHT22;18821;44.800;10.326;2023-07-24T12:11:43;30.70;99.90
32348;DHT22;18821;44.800;10.326;2023-07-24T12:14:09;30.40;99.90
32348;DHT22;18821;44.800;10.326;2023-07-24T12:16:36;30.60;99.90
32348;DHT22;18821;44.800;10.326;2023-07-24T12:19:02;30.90;99.90
32348;DHT22;18821;44.800;10.326;2023-07-24T12:21:28;31.50;99.90
32348;DHT22;18821;44.800;10.326;2023-07-24T12:23:54;31.20;99.90
32348;DHT22;18821;44.800;10.326;2023-07-24T12:26:20;31.30;99.90
32348;DHT22;18821;44.800;10.326;2023-07-24T12:28:46;31.40;99.90
32348;DHT22;18821;44.800;10.326;2023-07-24T12:31:12;31.30;99.90
32348;DHT22;18821;44.800;10.326;2023-07-24T12:33:38;31.50;99.90
32348;DHT22;18821;44.800;10.326;2023-07-24T12:36:04;31.70;99.90
32348;DHT22;18821;44.800;10.326;2023-07-24T12:38:30;31.90;99.90
32348;DHT22;18821;44.800;10.326;2023-07-24T12:40:56;32.00;99.90
32348;DHT22;18821;44.800;10.326;2023-07-24T12:43:22;32.00;99.90
32348;DHT22;18821;44.800;10.326;2023-07-24T12:45:47;31.80;99.90
32348;DHT22;18821;44.800;10.326;2023-07-24T12:48:13;31.70;99.90
32348;DHT22;18821;44.800;10.326;2023-07-24T12:50:40;31.60;99.90
32348;DHT22;18821;44.800;10.326;2023-07-24T12:53:06;31.80;99.90
32348;DHT22;18821;44.800;10.326;2023-07-24T12:55:32;31.90;99.90
32348;DHT22;18821;44.800;10.326;2023-07-24T12:57:58;32.00;99.90
32348;DHT22;18821;44.800;10.326;2023-07-24T13:00:24;32.10;99.90
32348;DHT22;18821;44.800;10.326;2023-07-24T13:02:49;32.10;99.90
32348;DHT22;18821;44.800;10.326;2023-07-24T13:05:15;31.90;99.90
32348;DHT22;18821;44.800;10.326;2023-07-24T13:07:41;31.90;99.90
32348;DHT22;18821;44.800;10.326;2023-07-24T13:10:08;31.80;99.90
32348;DHT22;18821;44.800;10.326;2023-07-24T13:12:34;31.70;99.90
32348;DHT22;18821;44.800;10.326;2023-07-24T13:15:00;31.30;99.90
32348;DHT22;18821;44.800;10.326;2023-07-24T13:17:26;32.30;99.90
32348;DHT22;18821;44.800;10.326;2023-07-24T13:19:52;31.90;99.90
32348;DHT22;18821;44.800;10.326;2023-07-24T13:22:18;32.80;99.90
32348;DHT22;18821;44.800;10.326;2023-07-24T13:24:44;31.70;99.90
32348;DHT22;18821;44.800;10.326;2023-07-24T13:27:09;31.20;99.90
32348;DHT22;18821;44.800;10.326;2023-07-24T13:29:35;31.40;99.90
32348;DHT22;18821;44.800;10.326;2023-07-24T13:32:01;31.80;99.90
32348;DHT22;18821;44.800;10.326;2023-07-24T13:34:27;31.80;99.90
32348;DHT22;18821;44.800;10.326;2023-07-24T13:36:53;31.80;99.90
32348;DHT22;18821;44.800;10.326;2023-07-24T13:39:19;32.60;99.90
32348;DHT22;18821;44.800;10.326;2023-07-24T13:41:45;32.30;99.90
32348;DHT22;18821;44.800;10.326;2023-07-24T13:46:38;33.40;99.90
32348;DHT22;18821;44.800;10.326;2023-07-24T13:49:04;32.30;99.90
32348;DHT22;18821;44.800;10.326;2023-07-24T13:51:30;31.50;99.90
32348;DHT22;18821;44.800;10.326;2023-07-24T13:56:22;32.90;99.90
32348;DHT22;18821;44.800;10.326;2023-07-24T14:01:15;32.20;99.90
32348;DHT22;18821;44.800;10.326;2023-07-24T14:03:41;32.40;99.90
32348;DHT22;18821;44.800;10.326;2023-07-24T14:08:35;32.60;99.90
32348;DHT22;18821;44.800;10.326;2023-07-24T14:11:02;32.50;99.90
32348;DHT22;18821;44.800;10.326;2023-07-24T14:13:27;32.70;99.90
32348;DHT22;18821;44.800;10.326;2023-07-24T14:15:53;32.90;99.90
32348;DHT22;18821;44.800;10.326;2023-07-24T14:18:20;32.70;99.90
32348;DHT22;18821;44.800;10.326;2023-07-24T14:20:45;32.30;99.90
32348;DHT22;18821;44.800;10.326;2023-07-24T14:25:39;32.80;99.90
32348;DHT22;18821;44.800;10.326;2023-07-24T14:28:05;32.30;99.90
32348;DHT22;18821;44.800;10.326;2023-07-24T14:32:57;32.30;99.90
32348;DHT22;18821;44.800;10.326;2023-07-24T14:35:23;32.00;99.90
32348;DHT22;18821;44.800;10.326;2023-07-24T14:37:49;32.80;99.90
32348;DHT22;18821;44.800;10.326;2023-07-24T14:40:15;32.20;99.90
32348;DHT22;18821;44.800;10.326;2023-07-24T14:42:41;32.00;99.90
32348;DHT22;18821;44.800;10.326;2023-07-24T14:45:07;31.70;99.90
32348;DHT22;18821;44.800;10.326;2023-07-24T14:47:33;31.80;99.90
32348;DHT22;18821;44.800;10.326;2023-07-24T14:49:59;31.90;99.90
32348;DHT22;18821;44.800;10.326;2023-07-24T14:52:25;31.50;99.90
32348;DHT22;18821;44.800;10.326;2023-07-24T14:54:51;32.20;99.90
32348;DHT22;18821;44.800;10.326;2023-07-24T14:57:17;31.90;99.90
32348;DHT22;18821;44.800;10.326;2023-07-24T14:59:43;31.90;99.90
32348;DHT22;18821;44.800;10.326;2023-07-24T15:02:09;31.90;99.90
32348;DHT22;18821;44.800;10.326;2023-07-24T15:04:35;31.60;99.90
32348;DHT22;18821;44.800;10.326;2023-07-24T15:07:00;31.60;99.90
32348;DHT22;18821;44.800;10.326;2023-07-24T15:09:26;31.70;99.90
32348;DHT22;18821;44.800;10.326;2023-07-24T15:11:52;31.20;99.90
32348;DHT22;18821;44.800;10.326;2023-07-24T15:14:18;31.80;99.90
32348;DHT22;18821;44.800;10.326;2023-07-24T15:16:44;31.80;99.90
32348;DHT22;18821;44.800;10.326;2023-07-24T15:19:11;31.40;99.90
32348;DHT22;18821;44.800;10.326;2023-07-24T15:21:37;31.10;99.90
32348;DHT22;18821;44.800;10.326;2023-07-24T15:24:03;31.10;99.90
32348;DHT22;18821;44.800;10.326;2023-07-24T15:26:29;30.90;99.90
32348;DHT22;18821;44.800;10.326;2023-07-24T15:28:54;31.30;99.90
32348;DHT22;18821;44.800;10.326;2023-07-24T15:31:21;31.30;99.90
32348;DHT22;18821;44.800;10.326;2023-07-24T15:33:47;31.30;99.90
32348;DHT22;18821;44.800;10.326;2023-07-24T15:36:13;31.30;99.90
32348;DHT22;18821;44.800;10.326;2023-07-24T15:38:39;32.00;99.90
32348;DHT22;18821;44.800;10.326;2023-07-24T15:41:05;32.00;99.90
32348;DHT22;18821;44.800;10.326;2023-07-24T15:45:57;31.70;99.90
32348;DHT22;18821;44.800;10.326;2023-07-24T15:48:23;32.00;99.90
32348;DHT22;18821;44.800;10.326;2023-07-24T15:50:49;31.60;99.90
32348;DHT22;18821;44.800;10.326;2023-07-24T15:53:15;31.30;99.90
32348;DHT22;18821;44.800;10.326;2023-07-24T15:58:07;31.00;99.90
32348;DHT22;18821;44.800;10.326;2023-07-24T16:00:33;31.60;99.90
32348;DHT22;18821;44.800;10.326;2023-07-24T16:02:59;32.00;99.90
32348;DHT22;18821;44.800;10.326;2023-07-24T16:05:25;31.80;99.90
32348;DHT22;18821;44.800;10.326;2023-07-24T16:07:51;31.70;99.90
32348;DHT22;18821;44.800;10.326;2023-07-24T16:10:17;32.40;99.90
32348;DHT22;18821;44.800;10.326;2023-07-24T16:12:43;32.00;99.90
32348;DHT22;18821;44.800;10.326;2023-07-24T16:15:09;31.80;99.90
32348;DHT22;18821;44.800;10.326;2023-07-24T16:17:36;31.50;99.90
32348;DHT22;18821;44.800;10.326;2023-07-24T16:20:02;31.80;99.90
32348;DHT22;18821;44.800;10.326;2023-07-24T16:22:28;31.40;99.90
32348;DHT22;18821;44.800;10.326;2023-07-24T16:24:55;32.30;99.90
32348;DHT22;18821;44.800;10.326;2023-07-24T16:27:21;31.10;99.90
32348;DHT22;18821;44.800;10.326;2023-07-24T16:32:13;30.90;99.90